Time;durP1;ratioP1;P1;durP2;ratioP2;P2;SDS_P1;SDS_P2;PMS_P1;PMS_P2;Temp;Humidity;BMP_temperature;BMP_pressure;BME280_temperature;BME280_humidity;BME280_pressure;Samples;Min_cycle;Max_cycle;Signal;HPM_P1;HPM_P2
2021/11/02 00:01:13;;;;;;;50.37;30.03;;;;;;;5.11;70.66;99551.13;1385954;94;21954;-90
2021/11/02 00:03:41;;;;;;;46.83;28.13;;;;;;;5.11;70.66;99551.13;1389890;94;21888;-90
2021/11/02 00:06:10;;;;;;;52.77;27.83;;;;;;;5.07;70.70;99535.80;1388303;94;22935;-90
2021/11/02 00:08:37;;;;;;;45.27;27.23;;;;;;;5.15;70.67;99540.73;1394848;94;22116;-91
2021/11/02 00:11:04;;;;;;;45.47;27.37;;;;;;;5.17;71.08;99534.02;1391467;94;22328;-90
2021/11/02 00:13:40;;;;;;;43.77;26.83;;;;;;;5.23;70.59;99533.47;1390291;93;22912;-90
2021/11/02 00:16:13;;;;;;;46.27;26.97;;;;;;;5.33;70.19;99526.46;1392918;94;21905;-90
2021/11/02 00:18:45;;;;;;;43.50;26.07;;;;;;;5.33;70.19;99526.46;1418696;92;21825;-91
2021/11/02 00:21:09;;;;;;;42.80;26.47;;;;;;;5.39;70.27;99520.67;1410878;92;22759;-91
2021/11/02 00:23:38;;;;;;;47.80;25.97;;;;;;;5.35;70.68;99514.05;1417706;92;22086;-91
2021/11/02 00:26:09;;;;;;;50.17;27.53;;;;;;;5.35;70.68;99514.05;1415542;92;22091;-90
2021/11/02 00:28:36;;;;;;;;;;;;;;;5.37;70.54;99523.90;1423836;92;22204;-91
2021/11/02 00:31:03;;;;;;;45.63;27.13;;;;;;;5.29;70.70;99517.67;1418714;92;20661;-90
2021/11/02 00:33:31;;;;;;;40.57;24.63;;;;;;;5.29;70.70;99517.67;1416165;92;22020;-89
2021/11/02 00:35:58;;;;;;;45.17;25.70;;;;;;;5.28;71.15;99522.59;1417673;92;22326;-89
2021/11/02 00:38:27;;;;;;;42.93;26.53;;;;;;;5.24;70.97;99523.34;1418568;92;23125;-90
2021/11/02 00:40:54;;;;;;;42.93;25.57;;;;;;;5.25;70.68;99528.93;1410395;92;22168;-90
2021/11/02 00:43:25;;;;;;;38.57;25.27;;;;;;;5.24;70.58;99519.41;1417870;92;22353;-89
2021/11/02 00:45:52;;;;;;;37.30;23.30;;;;;;;5.27;70.96;99517.00;1410775;92;22194;-89
2021/11/02 00:48:24;;;;;;;42.50;27.33;;;;;;;5.26;70.92;99516.64;1416983;92;22297;-89
2021/11/02 00:50:52;;;;;;;51.27;28.10;;;;;;;5.25;70.64;99507.12;1416482;92;23138;-89
2021/11/02 00:53:19;;;;;;;39.17;26.03;;;;;;;5.25;70.64;99507.12;1414187;92;22048;-88
2021/11/02 00:55:47;;;;;;;45.63;26.40;;;;;;;5.23;70.71;99509.86;1411747;92;22819;-89
2021/11/02 00:58:14;;;;;;;44.60;25.50;;;;;;;5.19;70.36;99512.42;1415032;92;23131;-89
2021/11/02 01:00:43;;;;;;;47.77;26.73;;;;;;;5.17;70.48;99507.30;1417692;92;22131;-89
2021/11/02 01:03:11;;;;;;;40.10;24.43;;;;;;;5.14;70.78;99501.02;1401284;92;22277;-90
2021/11/02 01:05:39;;;;;;;39.63;24.43;;;;;;;5.13;70.75;99499.85;1417254;92;22994;-91
2021/11/02 01:08:07;;;;;;;42.53;27.67;;;;;;;5.09;70.85;99502.38;1418338;92;22260;-91
2021/11/02 01:10:34;;;;;;;37.83;24.10;;;;;;;5.01;71.09;99491.77;1416103;91;23060;-89
2021/11/02 01:13:02;;;;;;;41.27;25.90;;;;;;;4.90;70.93;99488.27;1420405;92;21897;-89
2021/11/02 01:15:31;;;;;;;45.53;26.00;;;;;;;4.90;70.93;99497.45;1412662;92;21920;-91
2021/11/02 01:17:59;;;;;;;44.73;26.97;;;;;;;4.84;71.09;99487.50;1397786;92;22143;-89
2021/11/02 01:20:27;;;;;;;41.57;25.73;;;;;;;4.81;71.16;99487.77;1417806;92;22143;-89
2021/11/02 01:22:56;;;;;;;43.87;27.83;;;;;;;4.77;71.25;99481.61;1412968;92;21832;-93
2021/11/02 01:25:23;;;;;;;40.93;24.20;;;;;;;4.68;71.99;99470.95;1416776;92;23078;-91
2021/11/02 01:27:51;;;;;;;48.83;25.03;;;;;;;4.67;71.72;99473.23;1418584;92;21972;-90
2021/11/02 01:30:19;;;;;;;39.57;25.80;;;;;;;4.67;71.72;99473.23;1414454;92;21904;-90
2021/11/02 01:32:47;;;;;;;49.13;27.20;;;;;;;4.67;71.34;99473.72;1414939;92;21806;-89
2021/11/02 01:35:15;;;;;;;41.20;25.20;;;;;;;4.58;72.57;99469.28;1401461;92;21769;-90
2021/11/02 01:37:43;;;;;;;41.23;24.33;;;;;;;4.49;72.58;99478.77;1421275;92;21803;-90
2021/11/02 01:40:14;;;;;;;46.53;26.43;;;;;;;4.40;72.91;99462.05;1418501;92;21869;-89
2021/11/02 01:42:42;;;;;;;39.97;25.03;;;;;;;4.37;72.26;99458.35;1415565;92;22732;-90
2021/11/02 01:45:11;;;;;;;34.90;23.87;;;;;;;4.33;72.32;99451.73;1416684;92;21765;-89
2021/11/02 01:47:45;;;;;;;38.47;23.37;;;;;;;4.24;72.33;99455.14;1418771;92;21842;-89
2021/11/02 01:50:15;;;;;;;39.53;25.13;;;;;;;4.14;72.01;99449.02;1413664;92;23278;-89
2021/11/02 01:52:42;;;;;;;43.47;27.07;;;;;;;4.02;72.32;99441.23;1396925;92;21959;-90
2021/11/02 01:55:13;;;;;;;46.57;26.57;;;;;;;3.92;72.81;99430.37;1413173;92;21854;-90
2021/11/02 01:57:41;;;;;;;;;;;;;;;3.85;73.82;99433.97;1417890;92;21693;-90
2021/11/02 02:00:12;;;;;;;41.37;26.13;;;;;;;3.74;74.66;99436.66;1399559;92;20461;-90
2021/11/02 02:03:25;;;;;;;40.50;25.60;;;;;;;3.65;74.43;99427.78;1414311;92;22731;-88
2021/11/02 02:06:33;;;;;;;41.23;26.53;;;;;;;3.61;74.57;99432.94;1417267;92;22541;-88
2021/11/02 02:09:04;;;;;;;48.60;27.03;;;;;;;3.55;74.64;99432.97;1415076;92;21732;-89
2021/11/02 02:12:04;;;;;;;45.93;26.83;;;;;;;3.51;74.35;99425.48;1417461;92;21865;-90
2021/11/02 02:14:52;;;;;;;48.47;26.77;;;;;;;3.46;74.76;99418.03;1417666;90;22184;-90
2021/11/02 02:17:33;;;;;;;44.37;24.87;;;;;;;3.38;74.22;99409.50;1408891;92;21702;-90
2021/11/02 02:20:08;;;;;;;44.25;26.10;;;;;;;3.31;74.74;99415.36;1414642;92;21825;-89
2021/11/02 02:23:15;;;;;;;45.63;25.20;;;;;;;3.24;74.85;99416.83;1415963;92;21470;-90
2021/11/02 02:25:59;;;;;;;47.27;27.27;;;;;;;3.15;74.94;99414.00;1416911;92;21878;-91
2021/11/02 02:28:35;;;;;;;46.83;25.90;;;;;;;3.06;74.69;99404.30;1418562;92;21782;-91
2021/11/02 02:31:06;;;;;;;42.30;25.17;;;;;;;3.02;74.22;99404.66;1390575;94;21666;-94
2021/11/02 02:33:38;;;;;;;43.43;29.27;;;;;;;2.94;74.44;99406.61;1392146;94;21831;-90
2021/11/02 02:36:05;;;;;;;49.80;29.43;;;;;;;2.87;74.40;99402.81;1397922;94;21722;-91
2021/11/02 02:38:36;;;;;;;43.23;27.00;;;;;;;2.81;74.70;99407.23;1394805;93;21766;-90
2021/11/02 02:41:04;;;;;;;43.40;26.87;;;;;;;2.75;74.74;99401.19;1399231;93;22928;-91
2021/11/02 02:43:38;;;;;;;42.93;26.47;;;;;;;2.70;74.71;99399.79;1392387;93;22492;-92
2021/11/02 02:46:06;;;;;;;51.97;28.77;;;;;;;2.63;74.74;99399.91;1391814;94;21589;-92
2021/11/02 02:48:34;;;;;;;53.43;30.30;;;;;;;2.62;74.50;99390.42;1392201;94;21641;-91
2021/11/02 02:51:04;;;;;;;45.10;28.00;;;;;;;2.65;74.35;99391.96;1376611;94;21756;-91
2021/11/02 02:53:32;;;;;;;41.43;24.80;;;;;;;2.63;74.63;99388.63;1389233;93;21613;-91
2021/11/02 02:56:01;;;;;;;48.77;28.70;;;;;;;2.54;74.98;99392.80;1390178;94;21671;-92
2021/11/02 02:58:35;;;;;;;42.33;27.27;;;;;;;2.48;74.79;99397.21;1396230;94;21633;-91
2021/11/02 03:01:06;;;;;;;42.77;27.30;;;;;;;2.42;74.87;99395.09;1388986;94;21792;-91
2021/11/02 03:03:35;;;;;;;;;;;;;;;2.34;75.47;99392.25;1396523;94;22577;-91
2021/11/02 03:06:07;;;;;;;47.20;26.67;;;;;;;2.29;75.47;99388.67;1396254;94;20369;-91
2021/11/02 03:08:35;;;;;;;47.13;29.87;;;;;;;2.25;75.17;99383.35;1396138;94;21647;-91
2021/11/02 03:11:03;;;;;;;56.77;30.80;;;;;;;2.17;75.49;99374.80;1390311;93;22805;-91
2021/11/02 03:13:33;;;;;;;51.83;30.60;;;;;;;2.14;75.22;99378.96;1375789;94;21848;-90
2021/11/02 03:16:05;;;;;;;51.70;29.67;;;;;;;2.10;75.23;99374.94;1386988;94;21612;-92
2021/11/02 03:44:38;;;;;;;47.23;27.60;;;;;;;1.51;77.76;99381.64;1367074;94;22144;-92
2021/11/02 03:57:20;;;;;;;54.75;30.80;;;;;;;1.32;77.25;99381.72;1383909;94;21437;-92
2021/11/02 04:27:17;;;;;;;48.13;29.07;;;;;;;0.88;79.18;99356.32;1395457;93;21368;-90
2021/11/02 05:08:42;;;;;;;49.30;29.48;;;;;;;0.66;77.61;99327.09;1382611;92;21420;-91
2021/11/02 05:49:39;;;;;;;49.75;30.45;;;;;;;0.90;79.31;99316.67;1408999;91;21605;-92
2021/11/02 05:59:49;;;;;;;47.45;28.07;;;;;;;0.95;78.66;99303.28;1371736;92;21578;-91
2021/11/02 06:05:29;;;;;;;44.70;25.72;;;;;;;1.07;79.93;99299.79;1373089;95;22617;-91
2021/11/02 06:07:51;;;;;;;47.08;28.38;;;;;;;1.14;80.47;99295.77;1410075;92;21556;-92
2021/11/02 06:10:53;;;;;;;52.93;30.57;;;;;;;1.25;80.30;99299.70;1414971;92;21541;-91
2021/11/02 06:30:30;;;;;;;53.63;28.17;;;;;;;2.63;79.69;99271.90;1409510;92;21799;-91
2021/11/02 06:35:29;;;;;;;53.17;29.97;;;;;;;3.08;78.62;99274.75;1357627;96;22869;-91
2021/11/02 07:00:01;;;;;;;44.33;26.47;;;;;;;4.34;75.12;99233.33;1341878;97;21775;-91
2021/11/02 07:17:09;;;;;;;42.33;24.60;;;;;;;5.24;72.90;99219.03;1403714;92;22740;-91
2021/11/02 07:19:46;;;;;;;39.23;22.73;;;;;;;5.34;71.99;99217.19;1395670;92;22124;-93
2021/11/02 07:24:40;;;;;;;42.57;25.27;;;;;;;5.42;71.46;99209.92;1410983;93;22272;-92
2021/11/02 08:46:06;;;;;;;45.00;28.37;;;;;;;10.07;55.83;99143.12;1404895;93;22268;-87
2021/11/02 08:48:27;;;;;;;37.03;24.17;;;;;;;10.14;57.61;99137.47;1402775;93;22562;-87
2021/11/02 08:50:59;;;;;;;68.20;41.77;;;;;;;10.00;54.67;99131.63;1402398;93;21470;-93
2021/11/02 08:53:28;;;;;;;28.67;15.77;;;;;;;9.99;56.44;99128.66;1420771;93;22452;-92
2021/11/02 08:55:56;;;;;;;76.20;46.60;;;;;;;10.01;57.01;99126.17;1379402;95;22324;-93
2021/11/02 08:58:30;;;;;;;31.33;18.87;;;;;;;10.01;56.32;99123.53;1399883;92;21514;-90
2021/11/02 09:01:01;;;;;;;42.17;24.93;;;;;;;10.11;57.09;99123.28;1402370;93;21595;-91
2021/11/02 09:03:37;;;;;;;60.33;37.13;;;;;;;10.17;56.64;99115.46;1379827;95;21475;-91
2021/11/02 09:06:08;;;;;;;27.63;17.80;;;;;;;10.17;54.90;99122.58;1411527;93;21521;-90
2021/11/02 09:08:43;;;;;;;33.53;19.67;;;;;;;10.25;55.27;99116.41;1403263;92;22378;-90
2021/11/02 09:11:17;;;;;;;27.63;19.07;;;;;;;10.30;55.77;99120.68;1406343;92;21344;-89
2021/11/02 09:13:56;;;;;;;30.27;18.53;;;;;;;10.36;55.24;99122.13;1404679;93;21359;-90
2021/11/02 09:16:26;;;;;;;20.68;14.83;;;;;;;10.40;55.79;99121.27;1368139;95;21563;-89
2021/11/02 09:18:56;;;;;;;30.02;19.23;;;;;;;10.43;54.89;99121.41;1404821;93;21499;-89
2021/11/02 09:21:24;;;;;;;25.77;16.20;;;;;;;10.44;54.89;99121.73;1403685;93;21499;-89
2021/11/02 09:23:54;;;;;;;55.43;30.93;;;;;;;10.47;54.33;99120.05;1403076;93;21456;-89
2021/11/02 09:26:24;;;;;;;58.08;34.80;;;;;;;10.42;54.41;99123.25;1406860;93;21529;-88
2021/11/02 09:28:51;;;;;;;29.87;16.50;;;;;;;10.36;54.27;99122.13;1404314;93;22497;-90
2021/11/02 09:31:26;;;;;;;33.73;19.93;;;;;;;10.38;54.97;99129.37;1376735;95;21574;-90
2021/11/02 09:34:01;;;;;;;50.67;26.23;;;;;;;10.42;54.85;99123.75;1388689;95;21549;-90
2021/11/02 09:36:45;;;;;;;37.13;20.83;;;;;;;10.44;55.31;99121.73;1379327;95;22391;-88
2021/11/02 09:39:18;;;;;;;88.20;48.03;;;;;;;10.48;55.33;99124.36;1402521;93;21321;-95
2021/11/02 09:42:17;;;;;;;45.17;25.07;;;;;;;10.48;54.69;99121.71;1409337;93;22391;-89
2021/11/02 09:45:24;;;;;;;42.30;23.60;;;;;;;10.45;54.58;99114.95;1378850;94;22471;-85
2021/11/02 09:48:35;;;;;;;75.17;42.13;;;;;;;10.43;54.58;99121.41;1380631;95;21512;-86
2021/11/02 09:51:26;;;;;;;;;;;;;;;10.41;55.02;99123.41;1383802;94;21506;-87
2021/11/02 09:54:06;;;;;;;;;;;;;;;10.30;54.49;99127.29;1391365;94;20355;-92
2021/11/02 09:56:44;;;;;;;53.87;28.73;;;;;;;10.24;54.62;99127.50;1382213;94;20371;-93
2021/11/02 09:59:39;;;;;;;;;;;;;;;;;;;;;
2021/11/02 10:02:18;;;;;;;30.77;22.80;;;;;;;10.19;55.23;99111.84;1369212;94;21521;-90
2021/11/02 10:04:55;;;;;;;23.43;14.90;;;;;;;10.13;55.14;99106.25;1391204;94;21530;-92
2021/11/02 10:08:05;;;;;;;28.37;17.83;;;;;;;10.12;55.27;99106.41;1394848;94;23412;-93
2021/11/02 10:11:02;;;;;;;25.12;15.40;;;;;;;10.09;55.22;99106.77;1392272;94;21389;-93
2021/11/02 10:13:55;;;;;;;26.27;17.43;;;;;;;10.05;55.51;99102.34;1391342;94;21372;-88
2021/11/02 10:16:50;;;;;;;25.93;17.33;;;;;;;10.07;55.66;99110.92;1369176;95;21421;-91
2021/11/02 10:19:59;;;;;;;34.47;22.87;;;;;;;10.11;56.00;99114.03;1391128;92;21881;-91
2021/11/02 10:23:03;;;;;;;28.83;17.60;;;;;;;10.16;56.11;99119.11;1413376;92;21552;-92
2021/11/02 10:25:45;;;;;;;23.13;14.90;;;;;;;10.23;56.00;99131.63;1413621;92;21413;-88
2021/11/02 10:28:52;;;;;;;22.87;14.40;;;;;;;10.23;56.13;99133.77;1417746;92;21302;-88
2021/11/02 10:31:27;;;;;;;34.77;19.93;;;;;;;10.24;56.42;99136.75;1414003;92;21279;-89
2021/11/02 10:34:14;;;;;;;56.73;32.20;;;;;;;10.26;56.93;99130.77;1413918;92;22491;-91
2021/11/02 10:37:04;;;;;;;43.43;27.90;;;;;;;10.26;57.28;99132.09;1424565;92;21382;-88
2021/11/02 10:40:03;;;;;;;38.13;21.40;;;;;;;10.23;58.10;99136.41;1418894;92;21310;-87
2021/11/02 10:42:59;;;;;;;28.10;17.47;;;;;;;10.14;59.18;99137.47;1414747;90;21280;-87
2021/11/02 10:45:30;;;;;;;26.80;16.17;;;;;;;10.05;59.47;99139.86;1417741;92;21478;-85
2021/11/02 10:48:09;;;;;;;31.37;16.32;;;;;;;10.00;60.23;99142.20;1413073;92;21493;-85
2021/11/02 10:50:40;;;;;;;27.93;16.00;;;;;;;10.09;60.73;99143.78;1416349;92;21494;-86
2021/11/02 10:53:09;;;;;;;27.23;15.77;;;;;;;10.14;61.48;99147.55;1407780;92;21493;-85
2021/11/02 10:56:06;;;;;;;24.77;15.33;;;;;;;10.09;61.54;99153.03;1394577;92;21450;-87
2021/11/02 10:58:47;;;;;;;27.10;15.70;;;;;;;10.03;62.05;99151.91;1413135;90;21284;-87
2021/11/02 11:01:15;;;;;;;27.70;16.50;;;;;;;9.96;61.21;99158.09;1410595;92;22388;-87
2021/11/02 11:03:43;;;;;;;25.83;15.83;;;;;;;9.90;61.64;99160.42;1400336;92;22521;-87
2021/11/02 11:06:14;;;;;;;39.40;17.73;;;;;;;9.87;61.96;99155.49;1409005;92;22469;-88
2021/11/02 11:08:45;;;;;;;25.77;16.10;;;;;;;9.84;62.95;99159.80;1407227;92;22623;-88
2021/11/02 11:11:16;;;;;;;27.17;16.40;;;;;;;9.82;63.26;99154.37;1407198;92;21474;-87
2021/11/02 11:13:49;;;;;;;27.60;18.85;;;;;;;9.80;63.71;99150.56;1407630;92;21346;-87
2021/11/02 11:16:20;;;;;;;38.27;23.53;;;;;;;9.77;64.78;99142.17;1405770;92;21412;-87
2021/11/02 11:19:02;;;;;;;29.30;20.47;;;;;;;9.78;64.43;99140.69;1399862;92;21375;-88
2021/11/02 11:21:39;;;;;;;35.77;19.70;;;;;;;9.82;64.51;99128.76;1401027;92;21332;-88
2021/11/02 11:24:52;;;;;;;31.13;19.87;;;;;;;9.92;65.09;99118.77;1400791;93;21347;-88
2021/11/02 11:27:20;;;;;;;40.27;26.57;;;;;;;9.91;66.51;99118.45;1383796;93;21479;-89
2021/11/02 11:29:52;;;;;;;41.63;24.30;;;;;;;9.88;65.30;99129.88;1404639;92;21579;-89
2021/11/02 11:32:20;;;;;;;38.60;24.10;;;;;;;9.98;65.08;99126.50;1397427;92;21667;-88
2021/11/02 11:34:57;;;;;;;40.57;23.83;;;;;;;10.00;65.95;99121.86;1408915;92;21626;-89
2021/11/02 11:37:30;;;;;;;40.43;24.77;;;;;;;10.00;66.27;99117.08;1401134;92;21317;-89
2021/11/02 11:40:08;;;;;;;41.43;25.23;;;;;;;10.00;66.17;99110.47;1399702;92;21383;-90
2021/11/02 11:42:36;;;;;;;40.20;23.63;;;;;;;10.04;66.41;99110.44;1338459;94;21366;-89
2021/11/02 11:45:20;;;;;;;36.10;20.97;;;;;;;10.12;66.37;99109.06;1340382;93;21422;-89
2021/11/02 11:48:04;;;;;;;37.97;21.63;;;;;;;10.18;66.34;99108.34;1487410;92;21185;-89
2021/11/02 11:50:33;;;;;;;35.07;21.60;;;;;;;10.24;66.17;99103.70;1471335;92;21243;-89
2021/11/02 11:53:04;;;;;;;34.20;21.87;;;;;;;10.30;65.88;99100.38;1341388;92;21228;-88
2021/11/02 11:55:39;;;;;;;35.03;21.57;;;;;;;10.34;65.53;99097.68;1488214;92;21125;-88
2021/11/02 11:58:11;;;;;;;36.87;22.23;;;;;;;10.35;65.18;99096.66;1326872;94;22253;-88
2021/11/02 12:00:43;;;;;;;33.50;22.50;;;;;;;10.30;64.26;99088.47;1473858;92;21096;-88
2021/11/02 12:03:48;;;;;;;37.03;21.60;;;;;;;10.30;64.40;99095.08;1469890;93;22136;-88
2021/11/02 12:06:42;;;;;;;33.47;20.27;;;;;;;10.29;64.30;99086.80;1328663;96;22153;-87
2021/11/02 12:09:21;;;;;;;33.67;19.10;;;;;;;10.26;63.54;99091.61;1330210;93;21420;-88
2021/11/02 12:11:52;;;;;;;28.80;19.57;;;;;;;10.31;63.63;99094.07;1487919;92;21414;-88
2021/11/02 12:14:26;;;;;;;35.28;21.07;;;;;;;10.32;63.57;99093.06;1416188;92;21541;-89
2021/11/02 12:17:03;;;;;;;33.33;19.77;;;;;;;10.31;63.54;99088.78;1396066;92;21720;-88
2021/11/02 12:19:44;;;;;;;33.33;19.23;;;;;;;10.39;63.58;99093.19;1396168;92;22731;-89
2021/11/02 12:22:17;;;;;;;34.75;19.95;;;;;;;10.48;63.40;99087.33;1343076;95;22199;-89
2021/11/02 12:24:45;;;;;;;36.90;19.93;;;;;;;10.47;63.37;99084.34;1303949;95;21453;-89
2021/11/02 12:27:21;;;;;;;33.13;19.90;;;;;;;10.52;63.08;99085.95;1320033;94;21320;-89
2021/11/02 12:29:51;;;;;;;36.47;22.43;;;;;;;10.46;63.04;99093.28;1463317;94;21321;-87
2021/11/02 12:32:22;;;;;;;38.73;21.27;;;;;;;10.35;63.29;99084.77;1320483;94;22251;-87
2021/11/02 12:35:04;;;;;;;42.53;24.77;;;;;;;10.31;63.77;99079.52;1463519;94;22267;-88
2021/11/02 12:37:25;;;;;;;49.37;26.93;;;;;;;10.26;65.29;99081.84;1309142;96;21371;-89
2021/11/02 12:39:53;;;;;;;43.43;26.50;;;;;;;10.17;65.32;99078.95;1316113;94;21446;-87
2021/11/02 12:42:33;;;;;;;44.20;25.63;;;;;;;10.14;65.70;99077.98;1315895;94;21408;-88
2021/11/02 12:45:02;;;;;;;45.85;25.48;;;;;;;10.11;65.88;99075.70;1441566;95;21490;-88
2021/11/02 12:47:31;;;;;;;42.50;25.53;;;;;;;10.03;66.44;99068.64;1311888;94;21260;-88
2021/11/02 12:50:01;;;;;;;44.43;25.43;;;;;;;10.01;66.45;99067.17;1299460;96;21246;-87
2021/11/02 12:52:33;;;;;;;43.73;26.20;;;;;;;9.99;66.84;99067.88;1454639;94;21269;-87
2021/11/02 12:55:12;;;;;;;47.23;27.67;;;;;;;9.96;66.96;99073.01;1469404;94;21239;-88
2021/11/02 12:57:43;;;;;;;48.23;29.13;;;;;;;9.95;66.97;99067.38;1323853;94;21355;-89
2021/11/02 13:00:17;;;;;;;45.00;28.10;;;;;;;9.93;67.16;99066.25;1321741;95;21408;-89
2021/11/02 13:02:55;;;;;;;55.70;31.17;;;;;;;9.89;67.61;99064.94;1303552;97;21364;-87
2021/11/02 13:05:25;;;;;;;55.43;29.40;;;;;;;9.85;67.51;99068.95;1414333;94;22503;-88
2021/11/02 13:08:15;;;;;;;48.92;30.20;;;;;;;9.86;67.98;99073.23;1385929;94;21557;-88
2021/11/02 13:10:45;;;;;;;86.20;53.95;;;;;;;9.86;68.08;99072.41;1305212;95;22227;-88
2021/11/02 13:13:18;;;;;;;68.43;38.10;;;;;;;9.96;68.16;99073.52;1318419;94;22301;-88
2021/11/02 13:15:55;;;;;;;61.93;38.90;;;;;;;9.95;68.42;99071.34;1325376;93;21520;-88
2021/11/02 13:18:38;;;;;;;71.87;43.40;;;;;;;9.88;68.54;99080.48;1462996;94;21334;-88
2021/11/02 13:21:31;;;;;;;74.47;42.90;;;;;;;9.87;68.73;99078.86;1429540;94;21305;-89
2021/11/02 13:24:08;;;;;;;83.70;47.80;;;;;;;9.90;68.82;99076.36;1317362;93;21320;-88
2021/11/02 13:26:32;;;;;;;75.30;44.80;;;;;;;9.91;68.60;99071.39;1339439;94;21358;-86
2021/11/02 13:29:22;;;;;;;104.50;62.83;;;;;;;9.90;68.61;99067.93;1400702;92;22270;-87
2021/11/02 13:31:52;;;;;;;122.27;72.23;;;;;;;9.95;68.66;99071.34;1410365;92;21368;-87
2021/11/02 13:34:39;;;;;;;88.63;53.07;;;;;;;10.02;68.56;99064.88;1408449;92;21309;-87
2021/11/02 13:37:14;;;;;;;53.93;32.50;;;;;;;10.08;68.53;99068.12;1407389;92;22567;-87
2021/11/02 13:39:57;;;;;;;52.23;31.80;;;;;;;10.01;68.39;99069.82;1486932;93;21436;-87
2021/11/02 13:42:49;;;;;;;53.33;31.50;;;;;;;10.04;68.38;99062.85;1371125;92;21450;-87
2021/11/02 13:45:21;;;;;;;50.97;31.10;;;;;;;10.12;68.37;99059.64;1339723;92;21274;-88
2021/11/02 13:47:50;;;;;;;53.03;29.27;;;;;;;10.20;68.50;99053.48;1431573;92;22345;-87
2021/11/02 13:50:17;;;;;;;52.87;30.87;;;;;;;10.24;68.31;99052.14;1413990;93;23323;-87
2021/11/02 13:52:46;;;;;;;49.07;31.03;;;;;;;10.29;68.19;99047.14;1409161;92;22381;-87
2021/11/02 13:55:13;;;;;;;48.00;31.27;;;;;;;10.31;68.51;99046.47;1408573;93;21567;-87
2021/11/02 13:57:41;;;;;;;49.67;32.03;;;;;;;10.24;68.42;99044.20;1409027;93;21613;-87
2021/11/02 14:00:10;;;;;;;52.67;31.50;;;;;;;10.19;68.88;99055.81;1410913;93;22345;-87
2021/11/02 14:02:39;;;;;;;55.33;31.17;;;;;;;10.20;68.86;99050.83;1382383;92;21486;-86
2021/11/02 14:05:09;;;;;;;50.93;31.27;;;;;;;10.22;69.11;99051.48;1413221;92;21465;-86
2021/11/02 14:07:37;;;;;;;49.23;32.67;;;;;;;10.18;69.73;99043.57;1395939;93;21352;-88
2021/11/02 14:10:19;;;;;;;49.77;30.67;;;;;;;10.14;69.68;99044.44;1400530;93;21404;-86
2021/11/02 14:12:53;;;;;;;45.93;29.97;;;;;;;10.09;69.87;99040.68;1385184;93;21388;-87
2021/11/02 14:15:25;;;;;;;53.40;33.60;;;;;;;10.03;69.92;99040.89;1407901;93;21353;-87
2021/11/02 14:18:05;;;;;;;46.40;31.43;;;;;;;9.96;69.87;99042.61;1404521;93;21485;-87
2021/11/02 14:20:40;;;;;;;51.73;31.80;;;;;;;9.92;69.68;99040.80;1395493;93;21448;-87
2021/11/02 14:23:11;;;;;;;59.00;33.10;;;;;;;9.86;69.36;99041.52;1396673;92;21447;-87
2021/11/02 14:25:41;;;;;;;53.27;31.47;;;;;;;9.85;69.26;99045.17;1400662;93;21536;-87
2021/11/02 14:28:18;;;;;;;45.87;30.13;;;;;;;9.81;69.32;99043.89;1400690;92;21478;-87
2021/11/02 14:30:45;;;;;;;46.17;29.83;;;;;;;9.76;69.17;99044.09;1385656;93;22415;-87
2021/11/02 14:33:17;;;;;;;79.07;42.50;;;;;;;9.66;69.44;99046.44;1402269;92;21514;-89
2021/11/02 14:36:03;;;;;;;59.33;36.33;;;;;;;9.60;69.54;99044.50;1403029;93;21491;-88
2021/11/02 14:38:47;;;;;;;60.83;37.57;;;;;;;9.64;69.85;99055.56;1407622;93;21462;-89
2021/11/02 14:41:33;;;;;;;65.93;40.63;;;;;;;9.70;70.04;99068.89;1384452;93;21587;-88
2021/11/02 14:44:24;;;;;;;60.80;37.90;;;;;;;9.76;70.63;99074.48;1404447;93;21308;-87
2021/11/02 14:46:57;;;;;;;48.33;32.13;;;;;;;9.68;70.48;99076.66;1406856;93;21492;-88
2021/11/02 14:49:37;;;;;;;54.67;33.13;;;;;;;9.64;70.63;99085.95;1401423;93;21544;-89
2021/11/02 14:52:10;;;;;;;50.52;29.48;;;;;;;9.67;70.93;99092.20;1398263;92;21373;-88
2021/11/02 14:54:43;;;;;;;48.57;31.67;;;;;;;9.69;70.94;99084.90;1398678;93;21463;-89
2021/11/02 14:57:27;;;;;;;52.43;33.43;;;;;;;9.64;71.90;99075.38;1395296;93;21316;-88
2021/11/02 15:00:05;;;;;;;51.23;33.47;;;;;;;9.51;73.06;99052.16;1401715;92;21381;-88
2021/11/02 15:02:43;;;;;;;69.63;39.70;;;;;;;9.38;73.79;99038.69;1400314;93;22460;-89
2021/11/02 15:05:15;;;;;;;82.87;52.77;;;;;;;9.31;74.08;99042.53;1400473;92;21377;-88
2021/11/02 15:07:46;;;;;;;97.93;62.00;;;;;;;9.17;75.10;99047.22;1403390;92;21367;-88
2021/11/02 15:10:16;;;;;;;;;;;;;;;9.03;75.99;99050.92;1407605;92;21470;-88
2021/11/02 15:12:53;;;;;;;101.93;60.27;;;;;;;8.90;77.89;99049.31;1402278;93;20312;-87
2021/11/02 15:15:20;;;;;;;110.87;67.63;;;;;;;8.80;77.58;99048.67;1400698;92;21340;-87
2021/11/02 15:17:52;;;;;;;111.33;70.70;;;;;;;8.73;77.72;99046.41;1402348;92;22646;-86
2021/11/02 15:20:24;;;;;;;143.80;88.13;;;;;;;8.65;78.13;99051.20;1399182;93;21732;-88
2021/11/02 15:22:53;;;;;;;192.93;115.43;;;;;;;8.62;79.17;99048.08;1399096;93;21643;-86
2021/11/02 15:25:21;;;;;;;107.63;67.03;;;;;;;8.58;78.76;99052.38;1401925;93;21560;-87
2021/11/02 15:27:51;;;;;;;123.00;78.93;;;;;;;8.55;79.92;99055.34;1402566;93;23242;-87
2021/11/02 15:30:19;;;;;;;122.17;76.05;;;;;;;8.50;81.18;99048.43;1446124;93;21393;-88
2021/11/02 15:32:47;;;;;;;146.00;94.83;;;;;;;8.46;80.86;99055.04;1460768;94;21268;-89
2021/11/02 15:35:18;;;;;;;104.43;70.53;;;;;;;8.45;80.94;99050.73;1321218;94;21289;-90
2021/11/02 15:37:53;;;;;;;86.93;56.10;;;;;;;8.43;82.15;99055.37;1468224;94;22631;-91
2021/11/02 15:40:36;;;;;;;102.60;63.20;;;;;;;8.39;81.95;99052.73;1401175;94;22309;-91
2021/11/02 15:42:58;;;;;;;84.47;51.87;;;;;;;8.38;81.39;99070.02;1384845;94;22427;-90
2021/11/02 15:45:35;;;;;;;76.87;50.80;;;;;;;8.45;81.51;99069.70;1390149;94;21399;-93
2021/11/02 15:48:10;;;;;;;74.53;48.03;;;;;;;8.43;82.20;99078.26;1385685;94;21444;-92
2021/11/02 15:50:45;;;;;;;71.67;43.73;;;;;;;8.49;81.32;99080.25;1353249;97;21559;-92
2021/11/02 15:53:15;;;;;;;73.40;44.90;;;;;;;8.43;83.63;99081.75;1349472;97;21489;-90
2021/11/02 15:55:43;;;;;;;61.90;42.33;;;;;;;8.37;83.92;99084.98;1393352;94;21581;-93
2021/11/02 15:58:12;;;;;;;64.80;43.30;;;;;;;8.30;85.57;99081.38;1385291;94;22540;-90
2021/11/02 16:00:43;;;;;;;56.87;35.40;;;;;;;8.28;84.06;99078.08;1381389;94;21652;-95
2021/11/02 16:03:12;;;;;;;51.47;34.37;;;;;;;8.29;84.43;99078.42;1392035;94;21584;-92
2021/11/02 16:05:43;;;;;;;55.93;34.73;;;;;;;8.28;83.79;99082.03;1373021;94;21516;-90
2021/11/02 16:08:18;;;;;;;50.98;32.93;;;;;;;8.26;83.87;99074.81;1388164;94;22528;-93
2021/11/02 16:10:46;;;;;;;51.23;32.80;;;;;;;8.26;83.45;99074.31;1381539;94;23136;-90
2021/11/02 16:13:13;;;;;;;56.50;36.03;;;;;;;8.24;83.60;99076.28;1388539;94;21509;-90
2021/11/02 16:15:43;;;;;;;65.97;41.43;;;;;;;8.27;83.81;99069.85;1383480;94;21553;-90
2021/11/02 16:18:23;;;;;;;61.00;37.03;;;;;;;8.27;83.90;99069.85;1382067;94;22582;-89
2021/11/02 16:20:54;;;;;;;72.80;43.67;;;;;;;8.31;84.08;99068.52;1378015;94;21523;-91
2021/11/02 16:23:24;;;;;;;64.87;44.18;;;;;;;8.29;84.31;99062.61;1382597;95;21420;-88
2021/11/02 16:25:59;;;;;;;62.98;41.68;;;;;;;8.28;84.33;99059.62;1389588;95;21854;-89
2021/11/02 16:28:31;;;;;;;61.07;40.90;;;;;;;8.21;85.81;99060.80;1368848;95;22472;-93
2021/11/02 16:31:07;;;;;;;59.17;38.03;;;;;;;8.21;84.78;99077.92;1370008;95;21665;-92
2021/11/02 16:33:43;;;;;;;61.30;41.30;;;;;;;8.24;83.86;99088.64;1373935;95;21583;-92
2021/11/02 16:36:31;;;;;;;60.63;38.87;;;;;;;8.27;83.96;99083.03;1383536;95;21369;-93
2021/11/02 16:39:07;;;;;;;59.90;39.93;;;;;;;8.26;84.55;99085.34;1381043;94;21575;-92
2021/11/02 16:41:48;;;;;;;54.40;38.63;;;;;;;8.24;85.01;99082.05;1378561;94;21568;-92
2021/11/02 16:44:38;;;;;;;60.38;42.10;;;;;;;8.23;84.44;99072.47;1380471;95;22348;-91
2021/11/02 16:47:13;;;;;;;72.00;47.13;;;;;;;8.21;85.00;99074.47;1374326;95;21417;-92
2021/11/02 16:49:43;;;;;;;126.17;78.10;;;;;;;8.20;84.58;99076.76;1369284;96;21379;-92